createdAt,value
2023-04-08T00:00:47.737Z,0.75
2023-04-08T00:03:14.693Z,0.43
2023-04-08T00:05:41.642Z,1.38
2023-04-08T00:08:08.433Z,0.60
2023-04-08T00:10:35.069Z,0.80
2023-04-08T00:13:03.247Z,1.40
2023-04-08T00:15:31.144Z,1.33
2023-04-08T00:17:57.794Z,0.30
2023-04-08T00:20:25.316Z,0.65
2023-04-08T00:22:53.422Z,1.35
2023-04-08T00:25:20.293Z,1.10
2023-04-08T00:27:48.145Z,0.98
2023-04-08T00:30:15.631Z,0.93
2023-04-08T00:32:42.358Z,1.40
2023-04-08T00:35:09.288Z,0.95
2023-04-08T00:37:35.986Z,0.43
2023-04-08T00:40:02.591Z,1.45
2023-04-08T00:42:32.112Z,0.30
2023-04-08T00:44:58.786Z,0.38
2023-04-08T00:47:25.979Z,1.40
2023-04-08T00:49:52.628Z,1.33
2023-04-08T00:52:19.255Z,0.77
2023-04-08T00:54:46.276Z,0.70
2023-04-08T00:57:14.677Z,0.93
2023-04-08T00:59:41.777Z,1.23
2023-04-08T01:02:31.129Z,1.33
2023-04-08T01:05:15.828Z,0.90
2023-04-08T01:07:48.189Z,1.02
2023-04-08T01:10:22.254Z,0.60
2023-04-08T01:12:53.769Z,0.40
2023-04-08T01:15:20.960Z,1.48
2023-04-08T01:17:50.467Z,0.40
2023-04-08T01:20:17.734Z,1.45
2023-04-08T01:23:10.286Z,1.60
2023-04-08T01:25:39.427Z,1.08
2023-04-08T01:28:10.184Z,1.25
2023-04-08T01:30:41.976Z,1.50
2023-04-08T01:33:12.075Z,1.45
2023-04-08T01:35:39.154Z,1.25
2023-04-08T01:38:08.779Z,1.30
2023-04-08T01:40:38.149Z,0.85
2023-04-08T01:43:07.836Z,0.77
2023-04-08T01:45:34.493Z,0.40
2023-04-08T01:48:01.788Z,1.38
2023-04-08T01:50:30.675Z,0.32
2023-04-08T01:53:00.337Z,1.05
2023-04-08T01:55:28.895Z,1.90
2023-04-08T01:58:01.004Z,1.20
2023-04-08T02:00:31.135Z,1.05
2023-04-08T02:03:00.299Z,1.27
2023-04-08T02:05:27.082Z,1.75
2023-04-08T02:07:53.724Z,0.40
2023-04-08T02:10:21.629Z,0.50
2023-04-08T02:12:48.379Z,1.40
2023-04-08T02:15:15.796Z,1.60
2023-04-08T02:17:47.474Z,0.45
2023-04-08T02:20:32.768Z,0.50
2023-04-08T02:23:04.073Z,1.88
2023-04-08T02:25:32.148Z,1.10
2023-04-08T02:28:03.048Z,0.30
2023-04-08T02:30:31.376Z,0.93
2023-04-08T02:32:58.992Z,0.85
2023-04-08T02:35:28.061Z,0.52
2023-04-08T02:37:55.186Z,0.80
2023-04-08T02:40:30.397Z,0.43
2023-04-08T02:42:58.057Z,0.20
2023-04-08T02:45:33.383Z,0.68
2023-04-08T02:48:02.781Z,1.40
2023-04-08T02:50:29.495Z,1.85
2023-04-08T02:52:57.399Z,0.70
2023-04-08T02:55:24.036Z,1.10
2023-04-08T02:57:52.157Z,0.82
2023-04-08T03:00:18.778Z,1.00
2023-04-08T03:02:46.759Z,0.50
2023-04-08T03:05:13.586Z,0.30
2023-04-08T03:07:40.369Z,0.80
2023-04-08T03:10:07.686Z,2.83
2023-04-08T03:12:35.650Z,1.23
2023-04-08T03:15:03.554Z,0.70
2023-04-08T03:17:35.117Z,1.30
2023-04-08T03:20:06.223Z,0.70
2023-04-08T03:22:33.620Z,1.30
2023-04-08T03:25:01.765Z,1.10
2023-04-08T03:27:28.589Z,1.17
2023-04-08T03:29:56.579Z,1.58
2023-04-08T03:32:23.376Z,0.95
2023-04-08T03:34:52.808Z,1.40
2023-04-08T03:37:19.508Z,0.50
2023-04-08T03:39:46.597Z,0.70
2023-04-08T03:42:13.284Z,0.90
2023-04-08T03:44:39.979Z,0.63
2023-04-08T03:47:06.570Z,0.82
2023-04-08T03:49:33.153Z,0.50
2023-04-08T03:52:01.015Z,1.00
2023-04-08T03:54:29.082Z,0.90
2023-04-08T03:56:55.888Z,0.82
2023-04-08T03:59:23.075Z,0.55
2023-04-08T04:01:51.486Z,1.20
2023-04-08T04:04:19.130Z,0.90
2023-04-08T04:06:46.043Z,0.93
2023-04-08T04:09:14.040Z,0.47
2023-04-08T04:11:40.746Z,1.00
2023-04-08T04:14:07.422Z,0.85
2023-04-08T04:16:34.098Z,0.50
2023-04-08T04:19:00.920Z,1.27
2023-04-08T04:21:27.736Z,1.40
2023-04-08T04:23:55.901Z,0.68
2023-04-08T04:26:22.606Z,0.70
2023-04-08T04:28:50.816Z,1.63
2023-04-08T04:31:27.496Z,0.57
2023-04-08T04:33:54.896Z,1.20
2023-04-08T04:36:21.558Z,0.82
2023-04-08T04:38:50.501Z,1.17
2023-04-08T04:41:17.830Z,0.88
2023-04-08T04:43:44.462Z,1.30
2023-04-08T04:46:11.229Z,1.00
2023-04-08T04:48:37.917Z,1.38
2023-04-08T04:51:04.688Z,1.70
2023-04-08T04:53:33.052Z,1.13
2023-04-08T04:56:01.855Z,1.30
2023-04-08T04:58:30.692Z,1.40
2023-04-08T05:00:57.585Z,1.90
2023-04-08T05:03:24.783Z,1.60
2023-04-08T05:05:55.056Z,1.30
2023-04-08T05:08:22.214Z,1.55
2023-04-08T05:10:50.830Z,1.63
2023-04-08T05:13:20.161Z,1.42
2023-04-08T05:15:46.853Z,1.52
2023-04-08T05:18:13.827Z,1.40
2023-04-08T05:20:40.565Z,1.27
2023-04-08T05:23:07.821Z,1.48
2023-04-08T05:25:34.536Z,1.70
2023-04-08T05:28:02.505Z,1.30
2023-04-08T05:30:29.182Z,1.45
2023-04-08T05:32:59.910Z,1.27
2023-04-08T05:35:27.210Z,1.25
2023-04-08T05:37:54.070Z,1.60
2023-04-08T05:40:20.720Z,1.60
2023-04-08T05:42:47.317Z,1.50
2023-04-08T05:45:15.878Z,1.50
2023-04-08T05:47:42.496Z,1.48
2023-04-08T05:50:09.611Z,1.40
2023-04-08T05:52:36.467Z,1.20
2023-04-08T05:55:03.140Z,1.27
2023-04-08T05:57:29.728Z,1.58
2023-04-08T05:59:56.426Z,1.35
2023-04-08T06:02:24.009Z,1.40
2023-04-08T06:04:51.025Z,1.10
2023-04-08T06:07:17.821Z,1.38
2023-04-08T06:09:45.344Z,1.73
2023-04-08T06:12:12.102Z,3.63
2023-04-08T06:14:38.730Z,2.50
2023-04-08T06:17:05.424Z,1.60
2023-04-08T06:19:32.282Z,1.40
2023-04-08T06:21:59.400Z,1.95
2023-04-08T06:24:30.885Z,1.27
2023-04-08T06:26:58.587Z,1.60
2023-04-08T06:29:25.174Z,1.35
2023-04-08T06:31:51.816Z,1.50
2023-04-08T06:34:18.492Z,1.88
2023-04-08T06:36:45.232Z,2.03
2023-04-08T06:39:13.031Z,1.70
2023-04-08T06:41:39.623Z,1.38
2023-04-08T06:44:06.240Z,2.10
2023-04-08T06:46:32.954Z,2.00
2023-04-08T06:48:59.754Z,2.17
2023-04-08T06:51:27.968Z,1.63
2023-04-08T06:53:54.623Z,1.52
2023-04-08T06:56:22.644Z,1.95
2023-04-08T06:58:49.645Z,2.10
2023-04-08T07:01:16.663Z,2.40
2023-04-08T07:03:43.990Z,2.10
2023-04-08T07:06:11.145Z,1.88
2023-04-08T07:08:37.809Z,2.33
2023-04-08T07:11:05.343Z,1.60
2023-04-08T07:13:31.994Z,2.50
2023-04-08T07:15:58.601Z,1.90
2023-04-08T07:18:26.368Z,1.90
2023-04-08T07:20:54.104Z,1.88
2023-04-08T07:23:21.130Z,1.70
2023-04-08T07:25:48.285Z,2.28
2023-04-08T07:28:16.477Z,1.75
2023-04-08T07:30:43.115Z,2.00
2023-04-08T07:33:11.330Z,2.10
2023-04-08T07:35:39.542Z,1.67
2023-04-08T07:38:11.426Z,1.63
2023-04-08T07:40:38.118Z,1.67
2023-04-08T07:43:04.727Z,2.22
2023-04-08T07:45:31.378Z,1.85
2023-04-08T07:47:58.023Z,1.60
2023-04-08T07:50:24.710Z,1.35
2023-04-08T07:52:53.386Z,1.80
2023-04-08T07:55:20.321Z,1.45
2023-04-08T07:57:47.268Z,1.63
2023-04-08T08:00:22.125Z,1.90
2023-04-08T08:02:49.798Z,1.60
2023-04-08T08:05:16.646Z,1.50
2023-04-08T08:07:43.306Z,1.70
2023-04-08T08:10:11.113Z,1.73
2023-04-08T08:12:38.890Z,1.67
2023-04-08T08:15:06.093Z,1.40
2023-04-08T08:17:33.844Z,1.67
2023-04-08T08:20:01.264Z,1.40
2023-04-08T08:22:27.893Z,1.55
2023-04-08T08:24:58.117Z,1.90
2023-04-08T08:27:25.095Z,2.05
2023-04-08T08:29:52.718Z,1.63
2023-04-08T08:32:19.423Z,1.45
2023-04-08T08:34:46.095Z,1.45
2023-04-08T08:37:14.119Z,1.48
2023-04-08T08:39:41.067Z,1.27
2023-04-08T08:42:08.920Z,1.60
2023-04-08T08:44:36.086Z,1.30
2023-04-08T08:47:02.729Z,1.38
2023-04-08T08:49:29.443Z,1.30
2023-04-08T08:51:57.234Z,1.63
2023-04-08T08:54:23.854Z,1.20
2023-04-08T08:56:50.623Z,1.23
2023-04-08T08:59:17.262Z,1.30
2023-04-08T09:01:45.104Z,1.40
2023-04-08T09:04:20.351Z,1.10
2023-04-08T09:06:50.261Z,1.10
2023-04-08T09:09:17.680Z,1.25
2023-04-08T09:11:47.777Z,1.10
2023-04-08T09:14:18.256Z,1.20
2023-04-08T09:16:46.612Z,1.10
2023-04-08T09:19:13.504Z,1.20
2023-04-08T09:21:43.753Z,1.17
2023-04-08T09:24:28.010Z,1.20
2023-04-08T09:26:54.637Z,1.05
2023-04-08T09:29:26.260Z,1.20
2023-04-08T09:31:59.920Z,0.82
2023-04-08T09:34:29.069Z,1.17
2023-04-08T09:36:57.785Z,0.80
2023-04-08T09:39:24.560Z,0.90
2023-04-08T09:41:52.806Z,0.80
2023-04-08T09:44:23.110Z,1.00
2023-04-08T09:46:49.768Z,0.70
2023-04-08T09:49:27.079Z,0.98
2023-04-08T09:52:01.066Z,0.90
2023-04-08T09:54:37.185Z,0.80
2023-04-08T09:57:13.778Z,0.77
2023-04-08T09:59:50.394Z,0.93
2023-04-08T10:02:23.591Z,0.85
2023-04-08T10:04:54.051Z,0.90
2023-04-08T10:07:21.051Z,0.80
2023-04-08T10:09:48.063Z,0.60
2023-04-08T10:12:14.901Z,0.75
2023-04-08T10:14:41.682Z,0.65
2023-04-08T10:17:35.801Z,0.70
2023-04-08T10:20:02.572Z,0.80
2023-04-08T10:22:29.129Z,0.70
2023-04-08T10:25:33.311Z,1.10
2023-04-08T10:28:20.193Z,0.90
2023-04-08T10:30:48.347Z,0.80
2023-04-08T10:33:30.246Z,0.68
2023-04-08T10:36:02.143Z,0.80
2023-04-08T10:38:28.802Z,0.60
2023-04-08T10:40:55.689Z,0.80
2023-04-08T10:43:22.285Z,0.80
2023-04-08T10:45:51.606Z,0.60
2023-04-08T10:48:19.439Z,0.60
2023-04-08T10:50:59.640Z,0.60
2023-04-08T10:53:29.200Z,0.60
2023-04-08T10:56:13.264Z,0.63
2023-04-08T10:58:54.205Z,0.70
2023-04-08T11:01:21.396Z,0.73
2023-04-08T11:03:49.802Z,0.77
2023-04-08T11:06:17.820Z,0.80
2023-04-08T11:08:44.894Z,0.65
2023-04-08T11:11:12.902Z,0.50
2023-04-08T11:13:51.588Z,0.60
2023-04-08T11:16:20.928Z,0.60
2023-04-08T11:18:48.156Z,0.60
2023-04-08T11:21:16.666Z,0.70
2023-04-08T11:23:45.043Z,0.68
2023-04-08T11:26:12.004Z,0.73
2023-04-08T11:28:39.144Z,0.70
2023-04-08T11:31:07.644Z,0.63
2023-04-08T11:33:35.188Z,0.70
2023-04-08T11:36:04.696Z,0.40
2023-04-08T11:38:31.532Z,0.90
2023-04-08T11:40:59.511Z,0.50
2023-04-08T11:43:30.616Z,0.55
2023-04-08T11:45:59.018Z,0.50
2023-04-08T11:48:25.613Z,0.70
2023-04-08T11:51:12.496Z,0.60
2023-04-08T11:53:39.185Z,0.50
2023-04-08T11:56:23.466Z,0.70
2023-04-08T11:58:51.197Z,0.68
2023-04-08T12:01:18.431Z,0.40
2023-04-08T12:04:15.277Z,0.80
2023-04-08T12:06:43.649Z,0.50
2023-04-08T12:09:10.451Z,0.70
2023-04-08T12:11:37.068Z,1.17
2023-04-08T12:14:03.781Z,0.60
2023-04-08T12:16:32.052Z,1.17
2023-04-08T12:19:00.005Z,0.90
2023-04-08T12:21:27.906Z,0.52
2023-04-08T12:23:54.536Z,0.63
2023-04-08T12:26:21.145Z,0.82
2023-04-08T12:28:47.796Z,0.50
2023-04-08T12:31:14.749Z,0.65
2023-04-08T12:33:41.371Z,0.57
2023-04-08T12:36:08.195Z,0.50
2023-04-08T12:38:34.893Z,0.50
2023-04-08T12:41:01.590Z,0.70
2023-04-08T12:43:28.191Z,0.50
2023-04-08T12:45:56.274Z,0.40
2023-04-08T12:48:22.873Z,0.47
2023-04-08T12:50:49.529Z,0.40
2023-04-08T12:53:17.618Z,0.50
2023-04-08T12:55:44.799Z,0.40
2023-04-08T12:58:12.812Z,0.65
2023-04-08T13:00:41.720Z,0.50
2023-04-08T13:03:09.409Z,0.50
2023-04-08T13:05:43.212Z,0.50
2023-04-08T13:08:12.414Z,0.70
2023-04-08T13:10:39.144Z,0.63
2023-04-08T13:13:07.248Z,0.60
2023-04-08T13:15:33.870Z,0.40
2023-04-08T13:18:00.974Z,0.57
2023-04-08T13:20:28.240Z,0.60
2023-04-08T13:22:54.961Z,0.22
2023-04-08T13:25:22.899Z,0.45
2023-04-08T13:27:49.483Z,0.57
2023-04-08T13:30:16.519Z,0.50
2023-04-08T13:32:43.396Z,0.40
2023-04-08T13:35:10.461Z,0.50
2023-04-08T13:37:38.367Z,0.60
2023-04-08T13:40:07.485Z,0.50
2023-04-08T13:42:34.425Z,0.55
2023-04-08T13:45:02.605Z,0.28
2023-04-08T13:47:29.211Z,0.35
2023-04-08T13:49:55.879Z,0.40
2023-04-08T13:52:22.547Z,0.57
2023-04-08T13:54:49.149Z,0.57
2023-04-08T13:57:16.236Z,0.25
2023-04-08T13:59:44.826Z,0.38
2023-04-08T14:02:13.034Z,0.73
2023-04-08T14:04:40.234Z,0.50
2023-04-08T14:07:07.145Z,0.85
2023-04-08T14:09:33.895Z,0.50
2023-04-08T14:12:01.826Z,0.45
2023-04-08T14:14:29.814Z,0.40
2023-04-08T14:16:57.127Z,0.50
2023-04-08T14:19:25.286Z,0.30
2023-04-08T14:21:51.872Z,0.30
2023-04-08T14:24:18.459Z,0.57
2023-04-08T14:26:45.164Z,0.50
2023-04-08T14:29:11.835Z,0.47
2023-04-08T14:31:39.772Z,0.40
2023-04-08T14:34:07.625Z,0.40
2023-04-08T14:36:34.233Z,0.50
2023-04-08T14:39:02.428Z,0.32
2023-04-08T14:41:29.044Z,0.40
2023-04-08T14:43:55.670Z,0.40
2023-04-08T14:46:22.375Z,0.52
2023-04-08T14:48:49.535Z,0.40
2023-04-08T14:51:16.682Z,0.60
2023-04-08T14:53:43.302Z,0.70
2023-04-08T14:56:10.256Z,0.30
2023-04-08T14:58:37.003Z,0.50
2023-04-08T15:01:03.881Z,0.40
2023-04-08T15:03:31.072Z,0.63
2023-04-08T15:06:00.713Z,0.30
2023-04-08T15:08:28.901Z,0.47
2023-04-08T15:10:55.665Z,0.52
2023-04-08T15:13:23.011Z,0.70
2023-04-08T15:15:49.793Z,0.80
2023-04-08T15:18:16.398Z,1.10
2023-04-08T15:20:43.012Z,0.60
2023-04-08T15:23:10.034Z,0.60
2023-04-08T15:25:36.788Z,0.60
2023-04-08T15:28:03.585Z,0.50
2023-04-08T15:30:35.511Z,0.60
2023-04-08T15:33:05.656Z,0.80
2023-04-08T15:35:33.584Z,0.50
2023-04-08T15:38:01.953Z,0.40
2023-04-08T15:40:28.644Z,0.55
2023-04-08T15:42:56.066Z,0.40
2023-04-08T15:45:23.022Z,0.40
2023-04-08T15:47:49.778Z,0.50
2023-04-08T15:50:17.637Z,0.60
2023-04-08T15:52:44.886Z,0.50
2023-04-08T15:55:11.844Z,0.60
2023-04-08T15:57:38.670Z,0.50
2023-04-08T16:00:11.732Z,0.45
2023-04-08T16:02:38.919Z,0.65
2023-04-08T16:05:06.765Z,0.47
2023-04-08T16:07:33.374Z,0.40
2023-04-08T16:10:00.228Z,0.45
2023-04-08T16:12:28.501Z,0.40
2023-04-08T16:14:55.102Z,0.50
2023-04-08T16:17:22.002Z,0.47
2023-04-08T16:19:50.561Z,0.40
2023-04-08T16:22:17.498Z,0.55
2023-04-08T16:24:44.153Z,0.50
2023-04-08T16:27:10.835Z,0.50
2023-04-08T16:29:37.440Z,0.30
2023-04-08T16:32:04.770Z,0.40
2023-04-08T16:34:31.465Z,0.40
2023-04-08T16:36:59.597Z,0.30
2023-04-08T16:39:27.799Z,0.30
2023-04-08T16:41:54.394Z,0.30
2023-04-08T16:44:21.032Z,0.30
2023-04-08T16:46:47.725Z,0.40
2023-04-08T16:49:16.162Z,0.40
2023-04-08T16:51:43.578Z,0.70
2023-04-08T16:54:10.390Z,0.70
2023-04-08T16:56:37.033Z,0.50
2023-04-08T16:59:03.686Z,0.50
2023-04-08T17:01:30.463Z,0.40
2023-04-08T17:03:57.889Z,0.68
2023-04-08T17:06:24.652Z,0.80
2023-04-08T17:08:52.634Z,0.50
2023-04-08T17:11:21.536Z,0.65
2023-04-08T17:13:49.599Z,1.20
2023-04-08T17:16:18.567Z,1.13
2023-04-08T17:18:45.902Z,0.90
2023-04-08T17:21:14.077Z,1.20
2023-04-08T17:23:40.929Z,0.70
2023-04-08T17:26:10.742Z,0.60
2023-04-08T17:28:38.059Z,0.60
2023-04-08T17:31:04.799Z,0.50
2023-04-08T17:33:31.576Z,0.60
2023-04-08T17:35:58.272Z,0.50
2023-04-08T17:38:24.914Z,0.57
2023-04-08T17:40:51.898Z,0.60
2023-04-08T17:43:19.862Z,0.55
2023-04-08T17:45:47.010Z,0.50
2023-04-08T17:48:14.974Z,0.40
2023-04-08T17:50:41.636Z,0.70
2023-04-08T17:53:08.257Z,0.77
2023-04-08T17:55:35.038Z,0.98
2023-04-08T17:58:02.276Z,1.35
2023-04-08T18:00:29.121Z,1.95
2023-04-08T18:02:58.167Z,2.38
2023-04-08T18:05:24.871Z,3.20
2023-04-08T18:07:51.570Z,4.07
2023-04-08T18:10:18.562Z,3.80
2023-04-08T18:12:45.873Z,3.97
2023-04-08T18:15:14.045Z,5.60
2023-04-08T18:17:40.729Z,8.57
2023-04-08T18:20:07.903Z,5.45
2023-04-08T18:22:34.527Z,5.78
2023-04-08T18:25:01.145Z,6.50
2023-04-08T18:27:29.210Z,6.68
2023-04-08T18:29:55.968Z,4.05
2023-04-08T18:32:22.628Z,4.38
2023-04-08T18:34:53.193Z,3.58
2023-04-08T18:37:21.113Z,2.90
2023-04-08T18:39:48.187Z,3.65
2023-04-08T18:42:16.819Z,3.78
2023-04-08T18:44:44.895Z,2.58
2023-04-08T18:47:11.556Z,3.45
2023-04-08T18:49:42.411Z,3.50
2023-04-08T18:52:10.875Z,3.47
2023-04-08T18:54:38.601Z,2.65
2023-04-08T18:57:06.541Z,2.60
2023-04-08T18:59:33.159Z,2.45
2023-04-08T19:01:59.986Z,2.97
2023-04-08T19:04:27.462Z,3.95
2023-04-08T19:06:54.210Z,2.80
2023-04-08T19:09:20.913Z,2.60
2023-04-08T19:11:48.405Z,2.67
2023-04-08T19:14:17.026Z,1.48
2023-04-08T19:16:43.976Z,1.85
2023-04-08T19:19:10.664Z,1.48
2023-04-08T19:21:37.897Z,1.30
2023-04-08T19:24:06.410Z,1.52
2023-04-08T19:26:33.945Z,1.38
2023-04-08T19:29:01.149Z,1.60
2023-04-08T19:31:28.221Z,1.30
2023-04-08T19:33:54.882Z,1.13
2023-04-08T19:36:23.030Z,0.90
2023-04-08T19:38:49.650Z,1.10
2023-04-08T19:41:16.660Z,1.20
2023-04-08T19:43:43.289Z,1.35
2023-04-08T19:46:09.896Z,1.33
2023-04-08T19:48:36.658Z,1.20
2023-04-08T19:51:03.749Z,1.20
2023-04-08T19:53:30.820Z,1.20
2023-04-08T19:56:03.084Z,1.40
2023-04-08T19:58:31.068Z,1.48
2023-04-08T20:00:57.751Z,1.40
2023-04-08T20:03:25.108Z,1.60
2023-04-08T20:05:52.511Z,1.50
2023-04-08T20:08:19.097Z,2.30
2023-04-08T20:10:46.559Z,2.47
2023-04-08T20:13:14.685Z,1.60
2023-04-08T20:15:41.277Z,1.52
2023-04-08T20:18:07.892Z,1.65
2023-04-08T20:20:36.315Z,1.60
2023-04-08T20:23:04.406Z,1.77
2023-04-08T20:25:31.518Z,1.85
2023-04-08T20:27:58.149Z,2.17
2023-04-08T20:30:24.788Z,1.80
2023-04-08T20:32:51.630Z,1.70
2023-04-08T20:35:19.765Z,2.03
2023-04-08T20:37:46.429Z,1.85
2023-04-08T20:40:16.446Z,1.45
2023-04-08T20:42:44.804Z,2.10
2023-04-08T20:45:11.814Z,2.28
2023-04-08T20:47:39.093Z,2.30
2023-04-08T20:50:06.573Z,2.83
2023-04-08T20:52:34.272Z,2.15
2023-04-08T20:55:00.862Z,1.58
2023-04-08T20:57:28.852Z,2.10
2023-04-08T20:59:56.081Z,1.67
2023-04-08T21:02:22.932Z,1.70
2023-04-08T21:04:50.421Z,1.65
2023-04-08T21:07:17.070Z,1.90
2023-04-08T21:09:47.195Z,1.63
2023-04-08T21:12:15.333Z,2.05
2023-04-08T21:14:42.157Z,1.70
2023-04-08T21:17:09.956Z,2.05
2023-04-08T21:19:37.900Z,1.60
2023-04-08T21:22:05.974Z,1.85
2023-04-08T21:24:32.577Z,1.80
2023-04-08T21:26:59.191Z,1.95
2023-04-08T21:29:25.980Z,1.90
2023-04-08T21:31:52.627Z,1.90
2023-04-08T21:34:20.654Z,1.70
2023-04-08T21:36:47.250Z,1.88
2023-04-08T21:39:13.853Z,1.80
2023-04-08T21:41:41.602Z,1.65
2023-04-08T21:44:09.341Z,1.88
2023-04-08T21:46:37.129Z,1.75
2023-04-08T21:49:03.732Z,1.83
2023-04-08T21:51:30.398Z,1.48
2023-04-08T21:53:57.012Z,2.10
2023-04-08T21:56:24.589Z,2.30
2023-04-08T21:58:51.497Z,2.13
2023-04-08T22:01:18.310Z,1.90
2023-04-08T22:03:45.062Z,2.00
2023-04-08T22:06:19.142Z,2.38
2023-04-08T22:08:52.469Z,1.73
2023-04-08T22:11:19.342Z,2.00
2023-04-08T22:13:45.933Z,1.25
2023-04-08T22:16:13.736Z,2.40
2023-04-08T22:18:41.673Z,2.28
2023-04-08T22:21:08.300Z,1.75
2023-04-08T22:23:35.843Z,2.03
2023-04-08T22:26:02.567Z,2.53
2023-04-08T22:28:29.178Z,2.42
2023-04-08T22:30:55.921Z,2.13
2023-04-08T22:33:22.639Z,2.42
2023-04-08T22:35:49.278Z,2.83
2023-04-08T22:38:16.099Z,2.47
2023-04-08T22:40:42.692Z,3.83
2023-04-08T22:43:10.737Z,2.25
2023-04-08T22:45:37.638Z,2.17
2023-04-08T22:48:04.389Z,2.10
2023-04-08T22:50:31.447Z,2.13
2023-04-08T22:52:58.040Z,1.65
2023-04-08T22:55:24.704Z,2.50
2023-04-08T22:57:51.943Z,1.30
2023-04-08T23:00:18.784Z,1.70
2023-04-08T23:02:46.931Z,2.70
2023-04-08T23:05:14.846Z,1.67
2023-04-08T23:07:41.447Z,2.00
2023-04-08T23:10:09.844Z,2.22
2023-04-08T23:12:36.461Z,2.22
2023-04-08T23:15:04.692Z,1.75
2023-04-08T23:17:31.367Z,1.88
2023-04-08T23:19:57.997Z,2.10
2023-04-08T23:22:24.684Z,2.63
2023-04-08T23:24:51.313Z,2.33
2023-04-08T23:27:18.044Z,2.22
2023-04-08T23:29:46.143Z,1.40
2023-04-08T23:32:12.819Z,2.20
2023-04-08T23:34:39.451Z,2.45
2023-04-08T23:37:06.056Z,1.83
2023-04-08T23:39:32.732Z,2.35
2023-04-08T23:41:59.433Z,1.95
2023-04-08T23:44:27.647Z,1.63
2023-04-08T23:46:54.439Z,2.03
2023-04-08T23:49:22.549Z,2.35
2023-04-08T23:51:50.534Z,1.80
2023-04-08T23:54:17.165Z,2.05
2023-04-08T23:56:45.298Z,2.25
2023-04-08T23:59:13.175Z,2.50
